createdAt,value
2022-08-17T00:01:56.952Z,100946.33
2022-08-17T00:04:28.809Z,100939.75
2022-08-17T00:06:59.947Z,100940.72
2022-08-17T00:09:29.269Z,100945.58
2022-08-17T00:12:41.239Z,100934.41
2022-08-17T00:14:30.031Z,100934.33
2022-08-17T00:16:59.431Z,100927.95
2022-08-17T00:19:32.760Z,100914.61
2022-08-17T00:22:33.672Z,100917.76
2022-08-17T00:24:37.212Z,100916.81
2022-08-17T00:27:09.613Z,100921.14
2022-08-17T00:29:38.941Z,100914.30
2022-08-17T00:33:13.793Z,100913.66
2022-08-17T00:37:09.095Z,100907.39
2022-08-17T00:39:38.685Z,100902.72
2022-08-17T00:42:19.016Z,100906.33
2022-08-17T00:44:48.474Z,100905.88
2022-08-17T00:47:17.844Z,100912.22
2022-08-17T00:49:47.107Z,100912.45
2022-08-17T00:52:21.766Z,100915.90
2022-08-17T00:54:52.812Z,100901.98
2022-08-17T00:57:24.518Z,100889.34
2022-08-17T01:00:03.822Z,100887.25
2022-08-17T01:02:52.100Z,100892.80
2022-08-17T01:05:11.716Z,100889.19
2022-08-17T01:07:46.757Z,100884.89
2022-08-17T01:10:59.175Z,100896.53
2022-08-17T01:12:49.618Z,100892.49
2022-08-17T01:15:19.222Z,100888.78
2022-08-17T01:17:49.617Z,100884.22
2022-08-17T01:20:19.010Z,100875.21
2022-08-17T01:22:49.349Z,100876.88
2022-08-17T01:25:19.213Z,100872.75
2022-08-17T01:27:50.351Z,100878.09
2022-08-17T01:30:57.739Z,100879.83
2022-08-17T01:32:53.193Z,100879.38
2022-08-17T01:35:22.418Z,100882.17
2022-08-17T01:37:53.556Z,100889.13
2022-08-17T01:40:42.282Z,100880.00
2022-08-17T01:43:22.744Z,100887.08
2022-08-17T01:46:02.519Z,100894.80
2022-08-17T01:48:28.085Z,100910.47
2022-08-17T01:50:57.812Z,100911.42
2022-08-17T01:53:30.270Z,100895.00
2022-08-17T01:56:13.484Z,100891.00
2022-08-17T01:58:43.879Z,100880.27
2022-08-17T02:01:18.802Z,100872.19
2022-08-17T02:03:53.350Z,100869.38
2022-08-17T02:06:27.852Z,100874.14
2022-08-17T02:09:03.200Z,100868.84
2022-08-17T02:11:24.593Z,100874.23
2022-08-17T02:14:02.922Z,100874.69
2022-08-17T02:16:25.658Z,100873.52
2022-08-17T02:18:57.607Z,100872.60
2022-08-17T02:21:29.212Z,100868.16
2022-08-17T02:24:01.919Z,100878.52
2022-08-17T02:26:32.831Z,100877.55
2022-08-17T02:29:07.219Z,100889.59
2022-08-17T02:31:36.508Z,100886.59
2022-08-17T02:34:06.288Z,100890.69
2022-08-17T02:36:36.265Z,100891.98
2022-08-17T02:39:07.343Z,100897.20
2022-08-17T02:41:36.809Z,100894.92
2022-08-17T02:44:07.253Z,100898.63
2022-08-17T02:46:38.638Z,100903.58
2022-08-17T02:49:10.876Z,100906.96
2022-08-17T02:51:40.504Z,100916.33
2022-08-17T02:54:41.538Z,100919.62
2022-08-17T02:56:43.786Z,100918.81
2022-08-17T02:59:13.438Z,100918.48
2022-08-17T03:01:43.300Z,100918.39
2022-08-17T03:04:14.577Z,100923.67
2022-08-17T03:06:43.948Z,100919.02
2022-08-17T03:09:13.397Z,100918.06
2022-08-17T03:11:44.333Z,100919.33
2022-08-17T03:14:13.592Z,100923.23
2022-08-17T03:16:43.216Z,100922.43
2022-08-17T03:19:14.727Z,100935.88
2022-08-17T03:21:44.054Z,100936.52
2022-08-17T03:24:15.334Z,100934.92
2022-08-17T03:26:48.040Z,100932.20
2022-08-17T03:29:19.351Z,100929.34
2022-08-17T03:31:49.335Z,100932.95
2022-08-17T03:34:19.036Z,100929.80
2022-08-17T03:36:48.336Z,100925.38
2022-08-17T03:39:19.479Z,100930.12
2022-08-17T03:41:48.748Z,100921.03
2022-08-17T03:44:18.061Z,100910.16
2022-08-17T03:47:05.373Z,100914.51
2022-08-17T03:49:52.280Z,100906.70
2022-08-17T03:52:39.409Z,100908.13
2022-08-17T03:55:35.918Z,100906.22
2022-08-17T03:57:58.937Z,100907.58
2022-08-17T04:00:29.661Z,100901.98
2022-08-17T04:02:58.971Z,100912.92
2022-08-17T04:05:28.327Z,100912.44
2022-08-17T04:07:58.184Z,100917.64
2022-08-17T04:10:27.476Z,100919.94
2022-08-17T04:12:59.577Z,100924.75
2022-08-17T04:15:29.421Z,100926.42
2022-08-17T04:17:58.983Z,100923.46
2022-08-17T04:20:28.504Z,100926.11
2022-08-17T04:23:04.147Z,100919.86
2022-08-17T04:25:36.897Z,100930.27
2022-08-17T04:28:07.634Z,100922.90
2022-08-17T04:30:40.709Z,100922.10
2022-08-17T04:33:15.642Z,100922.02
2022-08-17T04:35:48.311Z,100912.81
2022-08-17T04:38:17.902Z,100916.89
2022-08-17T04:41:05.605Z,100915.09
2022-08-17T04:43:36.098Z,100918.02
2022-08-17T04:46:08.699Z,100914.48
2022-08-17T04:48:39.073Z,100911.69
2022-08-17T04:51:12.213Z,100914.73
2022-08-17T04:53:44.116Z,100908.16
2022-08-17T04:56:18.131Z,100917.13
2022-08-17T04:58:51.131Z,100921.22
2022-08-17T05:01:23.581Z,100922.77
2022-08-17T05:03:54.997Z,100924.94
2022-08-17T05:06:24.919Z,100932.55
2022-08-17T05:08:54.532Z,100944.12
2022-08-17T05:11:26.054Z,100937.73
2022-08-17T05:13:56.586Z,100948.75
2022-08-17T05:16:27.513Z,100945.66
2022-08-17T05:18:58.681Z,100942.61
2022-08-17T05:21:28.308Z,100952.15
2022-08-17T05:23:59.598Z,100959.98
2022-08-17T05:26:29.468Z,100959.98
2022-08-17T05:29:02.844Z,100972.48
2022-08-17T05:31:31.961Z,100975.96
2022-08-17T05:34:01.285Z,100969.26
2022-08-17T05:36:41.984Z,100968.86
2022-08-17T05:39:01.610Z,100960.20
2022-08-17T05:41:31.167Z,100953.47
2022-08-17T05:44:00.448Z,100949.30
2022-08-17T05:46:34.785Z,100947.23
2022-08-17T05:49:04.585Z,100943.15
2022-08-17T05:51:45.992Z,100941.27
2022-08-17T05:54:24.478Z,100944.91
2022-08-17T05:57:08.387Z,100950.83
2022-08-17T06:00:19.271Z,100950.80
2022-08-17T06:03:07.989Z,100952.02
2022-08-17T06:05:50.645Z,100953.61
2022-08-17T06:08:26.171Z,100946.78
2022-08-17T06:11:31.820Z,100943.26
2022-08-17T06:14:26.223Z,100952.89
2022-08-17T06:17:01.762Z,100953.19
2022-08-17T06:19:58.391Z,100956.48
2022-08-17T06:22:31.080Z,100957.88
2022-08-17T06:25:20.858Z,100960.37
2022-08-17T06:27:56.174Z,100968.14
2022-08-17T06:30:27.980Z,100965.12
2022-08-17T06:33:01.265Z,100971.84
2022-08-17T06:35:36.565Z,100975.44
2022-08-17T06:38:37.565Z,100981.31
2022-08-17T06:40:55.307Z,100979.63
2022-08-17T06:43:34.397Z,100985.31
2022-08-17T06:46:15.972Z,100986.77
2022-08-17T06:49:04.892Z,100988.08
2022-08-17T06:51:37.325Z,100983.50
2022-08-17T06:54:31.439Z,100996.64
2022-08-17T06:57:19.799Z,101004.27
2022-08-17T06:59:56.268Z,101012.36
2022-08-17T07:02:51.218Z,101014.77
2022-08-17T07:05:27.173Z,101017.39
2022-08-17T07:08:05.677Z,101020.63
2022-08-17T07:10:44.205Z,101024.72
2022-08-17T07:13:25.717Z,101026.42
2022-08-17T07:15:58.204Z,101031.26
2022-08-17T07:18:29.491Z,101038.94
2022-08-17T07:21:01.777Z,101037.25
2022-08-17T07:23:40.258Z,101038.02
2022-08-17T07:26:12.245Z,101043.16
2022-08-17T07:28:41.708Z,101047.44
2022-08-17T07:31:13.177Z,101046.11
2022-08-17T07:33:45.717Z,101047.38
2022-08-17T07:36:29.948Z,101043.70
2022-08-17T07:38:59.223Z,101049.41
2022-08-17T07:41:57.574Z,101047.80
2022-08-17T07:44:00.691Z,101046.29
2022-08-17T07:46:52.984Z,101045.48
2022-08-17T07:49:28.218Z,101051.45
2022-08-17T07:52:24.262Z,101051.32
2022-08-17T07:54:40.032Z,101053.41
2022-08-17T07:57:15.304Z,101052.98
2022-08-17T08:00:03.180Z,101055.87
2022-08-17T08:02:40.337Z,101058.36
2022-08-17T08:05:48.647Z,101061.83
2022-08-17T08:08:09.546Z,101068.63
2022-08-17T08:10:45.321Z,101068.01
2022-08-17T08:13:24.220Z,101070.50
2022-08-17T08:15:59.620Z,101070.09
2022-08-17T08:18:39.666Z,101062.05
2022-08-17T08:21:07.575Z,101066.97
2022-08-17T08:23:56.656Z,101065.73
2022-08-17T08:26:51.612Z,101062.02
2022-08-17T08:29:30.289Z,101067.23
2022-08-17T08:32:19.536Z,101061.06
2022-08-17T08:35:09.388Z,101064.66
2022-08-17T08:37:47.510Z,101059.94
2022-08-17T08:40:26.125Z,101070.86
2022-08-17T08:43:03.428Z,101067.59
2022-08-17T08:45:41.648Z,101067.92
2022-08-17T08:48:55.977Z,101070.91
2022-08-17T08:51:24.396Z,101071.02
2022-08-17T08:54:05.704Z,101076.84
2022-08-17T08:57:21.504Z,101074.48
2022-08-17T08:59:33.937Z,101065.22
2022-08-17T09:02:39.677Z,101063.52
2022-08-17T09:05:20.982Z,101059.02
2022-08-17T09:08:05.307Z,101060.58
2022-08-17T09:10:46.999Z,101062.62
2022-08-17T09:13:22.260Z,101061.55
2022-08-17T09:16:03.749Z,101056.80
2022-08-17T09:19:02.891Z,101056.80
2022-08-17T09:21:18.197Z,101050.31
2022-08-17T09:24:00.978Z,101056.48
2022-08-17T09:26:39.548Z,101053.45
2022-08-17T09:29:14.509Z,101059.27
2022-08-17T09:31:55.974Z,101064.34
2022-08-17T09:34:34.087Z,101066.09
2022-08-17T09:37:18.666Z,101079.91
2022-08-17T09:40:04.911Z,101097.58
2022-08-17T09:42:40.644Z,101106.55
2022-08-17T09:45:16.042Z,101110.59
2022-08-17T09:47:48.572Z,101110.44
2022-08-17T09:51:03.772Z,101113.17
2022-08-17T09:52:59.670Z,101115.91
2022-08-17T09:55:32.209Z,101116.31
2022-08-17T09:58:04.074Z,101123.66
2022-08-17T10:00:38.720Z,101130.16
2022-08-17T10:03:11.857Z,101122.79
2022-08-17T10:05:55.031Z,101124.50
2022-08-17T10:08:42.615Z,101132.37
2022-08-17T10:11:33.566Z,101137.19
2022-08-17T10:14:36.742Z,101139.06
2022-08-17T10:16:41.490Z,101130.12
2022-08-17T10:19:31.989Z,101132.27
2022-08-17T10:22:34.837Z,101128.16
2022-08-17T10:25:22.501Z,101123.55
2022-08-17T10:27:59.407Z,101120.25
2022-08-17T10:30:31.086Z,101125.52
2022-08-17T10:33:07.962Z,101133.56
2022-08-17T10:35:46.017Z,101144.83
2022-08-17T10:38:33.310Z,101152.55
2022-08-17T10:41:24.480Z,101168.16
2022-08-17T10:44:40.483Z,101161.22
2022-08-17T10:47:04.432Z,101167.70
2022-08-17T10:49:43.677Z,101167.83
2022-08-17T10:52:28.213Z,101162.89
2022-08-17T10:55:10.662Z,101157.80
2022-08-17T10:57:42.656Z,101152.25
2022-08-17T11:00:27.717Z,101150.78
2022-08-17T11:02:58.177Z,101146.91
2022-08-17T11:05:45.799Z,101145.25
2022-08-17T11:08:40.761Z,101136.45
2022-08-17T11:11:33.184Z,101133.91
2022-08-17T11:14:24.092Z,101137.56
2022-08-17T11:17:17.894Z,101138.87
2022-08-17T11:20:08.634Z,101138.32
2022-08-17T11:23:00.565Z,101138.20
2022-08-17T11:25:38.873Z,101137.97
2022-08-17T11:28:20.512Z,101141.39
2022-08-17T11:30:59.520Z,101142.11
2022-08-17T11:33:39.459Z,101142.42
2022-08-17T11:36:15.697Z,101143.56
2022-08-17T11:38:55.519Z,101137.84
2022-08-17T11:41:48.799Z,101140.89
2022-08-17T11:44:27.191Z,101138.47
2022-08-17T11:47:33.877Z,101131.42
2022-08-17T11:50:36.315Z,101124.33
2022-08-17T11:53:06.136Z,101126.66
2022-08-17T11:55:44.854Z,101121.87
2022-08-17T11:58:35.617Z,101118.33
2022-08-17T12:01:27.222Z,101116.98
2022-08-17T12:04:01.058Z,101117.97
2022-08-17T12:06:51.469Z,101116.91
2022-08-17T12:09:24.845Z,101118.30
2022-08-17T12:12:12.983Z,101109.93
2022-08-17T12:14:51.663Z,101126.27
2022-08-17T12:17:10.096Z,101133.95
2022-08-17T12:19:42.382Z,101141.56
2022-08-17T12:22:17.489Z,101151.23
2022-08-17T12:25:08.185Z,101148.27
2022-08-17T12:27:47.610Z,101149.00
2022-08-17T12:30:16.610Z,101157.12
2022-08-17T12:32:48.434Z,101152.14
2022-08-17T12:35:23.506Z,101153.95
2022-08-17T12:37:53.039Z,101152.72
2022-08-17T12:40:27.367Z,101147.89
2022-08-17T12:43:08.522Z,101150.57
2022-08-17T12:45:41.489Z,101149.69
2022-08-17T12:48:17.966Z,101153.71
2022-08-17T12:50:47.336Z,101158.92
2022-08-17T12:53:22.465Z,101157.88
2022-08-17T12:55:52.187Z,101158.92
2022-08-17T12:58:24.906Z,101154.63
2022-08-17T13:01:11.807Z,101156.19
2022-08-17T13:03:44.252Z,101158.19
2022-08-17T13:06:16.196Z,101157.85
2022-08-17T13:08:48.386Z,101162.85
2022-08-17T13:11:24.537Z,101160.02
2022-08-17T13:13:56.243Z,101159.81
2022-08-17T13:16:28.235Z,101162.53
2022-08-17T13:19:09.738Z,101167.31
2022-08-17T13:21:42.141Z,101172.72
2022-08-17T13:24:20.743Z,101177.69
2022-08-17T13:26:55.868Z,101175.94
2022-08-17T13:29:31.377Z,101173.98
2022-08-17T13:32:13.153Z,101165.28
2022-08-17T13:34:56.163Z,101160.02
2022-08-17T13:37:32.673Z,101158.39
2022-08-17T13:40:14.295Z,101148.58
2022-08-17T13:42:55.524Z,101141.52
2022-08-17T13:45:50.514Z,101136.95
2022-08-17T13:48:23.918Z,101137.51
2022-08-17T13:50:59.677Z,101142.24
2022-08-17T13:53:33.124Z,101147.09
2022-08-17T13:56:07.365Z,101151.59
2022-08-17T13:58:56.639Z,101146.66
2022-08-17T14:01:44.485Z,101140.69
2022-08-17T14:04:17.671Z,101128.02
2022-08-17T14:06:59.097Z,101121.77
2022-08-17T14:09:37.203Z,101122.73
2022-08-17T14:12:08.652Z,101117.16
2022-08-17T14:14:38.249Z,101125.58
2022-08-17T14:17:07.871Z,101116.73
2022-08-17T14:19:37.618Z,101112.86
2022-08-17T14:22:09.358Z,101111.14
2022-08-17T14:24:45.063Z,101115.42
2022-08-17T14:27:16.117Z,101114.87
2022-08-17T14:29:45.583Z,101118.91
2022-08-17T14:32:20.529Z,101119.78
2022-08-17T14:34:50.054Z,101111.86
2022-08-17T14:37:21.397Z,101119.03
2022-08-17T14:39:50.966Z,101117.19
2022-08-17T14:42:20.563Z,101116.93
2022-08-17T14:44:50.135Z,101110.10
2022-08-17T14:47:19.630Z,101117.33
2022-08-17T14:49:49.608Z,101123.28
2022-08-17T14:52:22.242Z,101123.84
2022-08-17T14:54:52.559Z,101119.98
2022-08-17T14:57:33.339Z,101116.59
2022-08-17T14:59:56.576Z,101118.02
2022-08-17T15:02:29.776Z,101120.91
2022-08-17T15:05:02.914Z,101123.94
2022-08-17T15:07:32.470Z,101125.06
2022-08-17T15:10:02.643Z,101125.06
2022-08-17T15:12:34.330Z,101119.37
2022-08-17T15:15:05.672Z,101123.70
2022-08-17T15:17:44.412Z,101125.30
2022-08-17T15:20:14.228Z,101131.16
2022-08-17T15:22:42.604Z,101133.17
2022-08-17T15:25:12.709Z,101136.23
2022-08-17T15:27:42.710Z,101140.38
2022-08-17T15:30:12.867Z,101142.44
2022-08-17T15:32:50.727Z,101134.17
2022-08-17T15:35:14.932Z,101143.66
2022-08-17T15:37:45.338Z,101138.24
2022-08-17T15:40:14.867Z,101138.34
2022-08-17T15:42:44.447Z,101141.77
2022-08-17T15:45:14.672Z,101134.06
2022-08-17T15:47:44.115Z,101137.13
2022-08-17T15:50:13.558Z,101134.81
2022-08-17T15:52:45.058Z,101134.64
2022-08-17T15:55:15.577Z,101134.31
2022-08-17T15:57:44.997Z,101136.48
2022-08-17T16:00:14.925Z,101135.20
2022-08-17T16:03:15.225Z,101132.66
2022-08-17T16:05:19.940Z,101132.52
2022-08-17T16:07:50.370Z,101123.86
2022-08-17T16:10:20.019Z,101113.27
2022-08-17T16:12:50.557Z,101118.35
2022-08-17T16:15:21.334Z,101119.00
2022-08-17T16:17:50.776Z,101121.73
2022-08-17T16:20:21.119Z,101124.14
2022-08-17T16:22:51.798Z,101118.39
2022-08-17T16:25:52.205Z,101117.34
2022-08-17T16:27:55.374Z,101109.03
2022-08-17T16:30:27.263Z,101114.73
2022-08-17T16:32:58.268Z,101112.47
2022-08-17T16:35:28.410Z,101111.44
2022-08-17T16:37:58.740Z,101113.78
2022-08-17T16:40:31.238Z,101115.34
2022-08-17T16:43:01.651Z,101123.30
2022-08-17T16:45:33.302Z,101129.00
2022-08-17T16:48:02.733Z,101130.36
2022-08-17T16:50:32.733Z,101128.84
2022-08-17T16:53:08.091Z,101131.40
2022-08-17T16:55:38.111Z,101128.66
2022-08-17T16:58:08.851Z,101132.66
2022-08-17T17:00:39.530Z,101134.63
2022-08-17T17:03:19.506Z,101141.27
2022-08-17T17:05:55.145Z,101151.46
2022-08-17T17:08:44.565Z,101149.59
2022-08-17T17:11:25.762Z,101151.46
2022-08-17T17:14:01.835Z,101158.65
2022-08-17T17:16:37.607Z,101156.50
2022-08-17T17:19:41.216Z,101162.25
2022-08-17T17:22:17.699Z,101168.34
2022-08-17T17:25:09.514Z,101167.59
2022-08-17T17:28:05.404Z,101168.15
2022-08-17T17:30:47.093Z,101168.23
2022-08-17T17:33:19.802Z,101173.44
2022-08-17T17:36:01.362Z,101173.68
2022-08-17T17:38:48.534Z,101168.72
2022-08-17T17:41:25.881Z,101169.16
2022-08-17T17:43:54.130Z,101173.32
2022-08-17T17:46:29.508Z,101173.44
2022-08-17T17:48:59.538Z,101171.32
2022-08-17T17:52:07.922Z,101171.88
2022-08-17T17:54:40.224Z,101176.41
2022-08-17T17:57:33.963Z,101182.43
2022-08-17T18:00:26.041Z,101179.58
2022-08-17T18:03:19.773Z,101185.32
2022-08-17T18:06:10.655Z,101184.03
2022-08-17T18:09:06.317Z,101182.98
2022-08-17T18:12:05.981Z,101178.02
2022-08-17T18:15:04.378Z,101178.63
2022-08-17T18:17:34.107Z,101179.98
2022-08-17T18:20:06.923Z,101174.53
2022-08-17T18:22:36.235Z,101168.95
2022-08-17T18:25:07.281Z,101170.39
2022-08-17T18:27:42.116Z,101171.55
2022-08-17T18:30:17.646Z,101180.37
2022-08-17T18:32:47.656Z,101180.73
2022-08-17T18:35:24.516Z,101184.55
2022-08-17T18:37:56.240Z,101186.29
2022-08-17T18:40:28.730Z,101177.31
2022-08-17T18:42:58.923Z,101175.43
2022-08-17T18:45:40.815Z,101175.81
2022-08-17T18:48:28.273Z,101171.50
2022-08-17T18:51:00.961Z,101180.08
2022-08-17T18:53:36.374Z,101179.80
2022-08-17T18:56:30.479Z,101178.47
2022-08-17T18:59:38.799Z,101180.84
2022-08-17T19:02:27.246Z,101185.66
2022-08-17T19:05:13.208Z,101186.17
2022-08-17T19:07:45.265Z,101190.27
2022-08-17T19:10:25.910Z,101195.08
2022-08-17T19:13:12.165Z,101200.05
2022-08-17T19:16:14.571Z,101202.29
2022-08-17T19:18:29.834Z,101210.26
2022-08-17T19:21:17.553Z,101209.01
2022-08-17T19:23:58.893Z,101218.86
2022-08-17T19:26:54.419Z,101220.23
2022-08-17T19:29:05.693Z,101222.43
2022-08-17T19:31:35.168Z,101219.98
2022-08-17T19:34:04.506Z,101221.91
2022-08-17T19:36:43.024Z,101223.87
2022-08-17T19:39:18.328Z,101225.55
2022-08-17T19:41:53.582Z,101224.98
2022-08-17T19:44:34.804Z,101230.50
2022-08-17T19:47:36.276Z,101234.24
2022-08-17T19:49:59.253Z,101237.03
2022-08-17T19:52:40.357Z,101242.20
2022-08-17T19:55:38.560Z,101243.28
2022-08-17T19:58:33.332Z,101243.73
2022-08-17T20:01:03.236Z,101246.98
2022-08-17T20:03:38.541Z,101253.80
2022-08-17T20:06:13.005Z,101251.36
2022-08-17T20:08:40.919Z,101250.55
2022-08-17T20:11:28.645Z,101255.72
2022-08-17T20:14:13.018Z,101256.91
2022-08-17T20:16:42.955Z,101257.46
2022-08-17T20:19:26.851Z,101263.16
2022-08-17T20:21:59.352Z,101266.19
2022-08-17T20:24:37.719Z,101262.63
2022-08-17T20:27:31.652Z,101269.72
2022-08-17T20:30:11.565Z,101272.94
2022-08-17T20:32:52.009Z,101267.80
2022-08-17T20:35:36.390Z,101265.57
2022-08-17T20:38:11.074Z,101255.16
2022-08-17T20:40:43.514Z,101251.08
2022-08-17T20:43:37.899Z,101252.72
2022-08-17T20:46:19.256Z,101252.44
2022-08-17T20:48:51.704Z,101251.91
2022-08-17T20:51:32.806Z,101247.27
2022-08-17T20:54:08.498Z,101242.09
2022-08-17T20:56:49.343Z,101234.73
2022-08-17T20:59:28.551Z,101230.64
2022-08-17T21:02:19.086Z,101226.87
2022-08-17T21:04:54.763Z,101223.97
2022-08-17T21:07:42.961Z,101222.33
2022-08-17T21:10:26.186Z,101225.92
2022-08-17T21:13:01.414Z,101232.98
2022-08-17T21:15:48.525Z,101232.24
2022-08-17T21:18:21.105Z,101224.56
2022-08-17T21:21:07.720Z,101218.10
2022-08-17T21:23:46.180Z,101220.13
2022-08-17T21:26:31.069Z,101230.31
2022-08-17T21:29:14.687Z,101236.41
2022-08-17T21:31:45.367Z,101240.31
2022-08-17T21:34:19.512Z,101240.59
2022-08-17T21:36:49.361Z,101241.16
2022-08-17T21:39:28.367Z,101244.19
2022-08-17T21:41:58.395Z,101245.86
2022-08-17T21:44:39.779Z,101244.59
2022-08-17T21:47:24.761Z,101248.95
2022-08-17T21:49:55.391Z,101251.77
2022-08-17T21:52:25.919Z,101252.94
2022-08-17T21:54:58.165Z,101262.50
2022-08-17T21:57:29.165Z,101264.17
2022-08-17T22:00:01.779Z,101266.89
2022-08-17T22:02:38.187Z,101269.30
2022-08-17T22:05:11.237Z,101275.55
2022-08-17T22:07:43.108Z,101276.33
2022-08-17T22:10:31.125Z,101285.55
2022-08-17T22:13:16.725Z,101279.55
2022-08-17T22:16:27.956Z,101288.52
2022-08-17T22:18:41.199Z,101291.55
2022-08-17T22:21:10.624Z,101296.99
2022-08-17T22:24:00.134Z,101294.02
2022-08-17T22:26:49.991Z,101297.61
2022-08-17T22:29:45.209Z,101308.19
2022-08-17T22:32:41.026Z,101305.49
2022-08-17T22:35:32.637Z,101306.97
2022-08-17T22:38:23.681Z,101304.83
2022-08-17T22:40:55.780Z,101294.20
2022-08-17T22:43:28.583Z,101288.45
2022-08-17T22:45:59.861Z,101291.16
2022-08-17T22:48:31.421Z,101295.25
2022-08-17T22:51:12.766Z,101289.28
2022-08-17T22:54:07.360Z,101290.64
2022-08-17T22:56:54.982Z,101293.09
2022-08-17T22:59:43.701Z,101295.80
2022-08-17T23:05:14.219Z,101300.20
2022-08-17T23:15:19.528Z,101296.25
2022-08-17T23:17:48.245Z,101294.02
2022-08-17T23:20:21.597Z,101297.55
2022-08-17T23:22:51.882Z,101301.88
2022-08-17T23:25:33.527Z,101302.50
2022-08-17T23:28:08.477Z,101306.02
2022-08-17T23:30:42.964Z,101306.83
2022-08-17T23:33:21.408Z,101298.97
2022-08-17T23:35:50.902Z,101293.25
2022-08-17T23:38:20.173Z,101289.47
2022-08-17T23:40:49.471Z,101281.92
2022-08-17T23:43:24.338Z,101287.92
2022-08-17T23:45:50.631Z,101289.00
2022-08-17T23:48:28.432Z,101291.48
2022-08-17T23:50:54.577Z,101287.95
2022-08-17T23:53:25.962Z,101295.31
2022-08-17T23:56:09.446Z,101298.83
2022-08-17T23:58:28.319Z,101302.89
